Aviation Digital Data Service (ADDS)

Output produced by METARs form (1739 UTC 27 May 2017)
found at http://www.aviationweather.gov/adds/metars/
 
FYWE 271600Z 28007KT CAVOK 22/M09 Q1024
TAF FYWE 271700Z 2718/2803 28014KT CAVOK 
     BECMG 2719/2721 12007KT
       
FYGF 271200Z 08006KT CAVOK 27/10 Q////
TAF FYGF 271700Z 2718/2803 18004KT CAVOK
       
FYWH 271600Z 28007KT CAVOK 21/M04 Q1024 NOSIG
TAF FYWH 271600Z 2718/2824 26010KT CAVOK 
     BECMG 2808/2810 13008KT 
       
FYKT 271500Z 18008KT CAVOK 20/08 Q1024
TAF FYKT 271600Z 2718/2824 18008KT CAVOK 
     BECMG 2809/2811 08008KT 
       
TAF FYLZ 271700Z 2718/2803 17013KT CAVOK 
     BECMG 2719/2721 17003KT 9999 SCT020 
     TEMPO 2800/2803 0900 FG OVC010
       
TAF FYOA 271700Z 2718/2803 18004KT 9999 SCT045 
     BECMG 2719/2721 NSC
       
TAF FYOG 271700Z 2718/2803 16013KT CAVOK 
     BECMG 2719/2721 15003KT 9999 SCT015 
     TEMPO 2800/2803 0900 FG OVC010
       
TAF FYRU 271700Z 2718/2803 18006KT 9999 FEW030CB SCT040TCU 
     BECMG 2719/2721 NSC
       
FYWB 271200Z 27006KT CAVOK 21/10 Q1019
TAF FYWB 271600Z 2718/2824 23011KT CAVOK 
     BECMG 2718/2720 9999 BKN020 
     TEMPO 2721/2804 05004KT 0500 FG OVC006 
     BECMG 2805/2807 9999 OVC010 
     BECMG 2808/2810 19010KT CAVOK 
     BECMG 2818/2820 9999 BKN015 
     TEMPO 2821/2824 06003KT 0900 FG OVC010